sensor_id;sensor_type;location;lat;lon;timestamp;pressure;altitude;pressure_sealevel;temperature;humidity
71638;BME280;59485;43.542;-5.676;2022-12-20T00:01:10;100966.56;;;18.90;100.00
71638;BME280;59485;43.542;-5.676;2022-12-20T00:03:36;100975.06;;;18.95;100.00
71638;BME280;59485;43.542;-5.676;2022-12-20T00:06:02;100975.28;;;18.93;100.00
71638;BME280;59485;43.542;-5.676;2022-12-20T00:08:29;100969.84;;;18.98;100.00
71638;BME280;59485;43.542;-5.676;2022-12-20T00:10:54;100958.25;;;19.01;100.00
71638;BME280;59485;43.542;-5.676;2022-12-20T00:13:20;100963.91;;;19.06;100.00
71638;BME280;59485;43.542;-5.676;2022-12-20T00:15:45;100958.72;;;19.10;100.00
71638;BME280;59485;43.542;-5.676;2022-12-20T00:18:11;100946.28;;;19.13;100.00
71638;BME280;59485;43.542;-5.676;2022-12-20T00:20:37;100932.03;;;19.09;100.00
71638;BME280;59485;43.542;-5.676;2022-12-20T00:23:02;100934.34;;;19.12;100.00
71638;BME280;59485;43.542;-5.676;2022-12-20T00:25:28;100939.16;;;19.17;99.72
71638;BME280;59485;43.542;-5.676;2022-12-20T00:27:54;100940.38;;;19.21;99.95
71638;BME280;59485;43.542;-5.676;2022-12-20T00:30:19;100933.97;;;19.20;100.00
71638;BME280;59485;43.542;-5.676;2022-12-20T00:32:45;100938.53;;;19.26;100.00
71638;BME280;59485;43.542;-5.676;2022-12-20T00:35:11;100930.06;;;19.33;99.30
71638;BME280;59485;43.542;-5.676;2022-12-20T00:37:37;100911.19;;;19.35;99.60
71638;BME280;59485;43.542;-5.676;2022-12-20T00:40:04;100909.28;;;19.35;100.00
71638;BME280;59485;43.542;-5.676;2022-12-20T00:42:30;100919.31;;;19.36;99.44
71638;BME280;59485;43.542;-5.676;2022-12-20T00:44:56;100920.53;;;19.40;99.52
71638;BME280;59485;43.542;-5.676;2022-12-20T00:47:21;100901.63;;;19.42;99.03
71638;BME280;59485;43.542;-5.676;2022-12-20T00:49:47;100916.53;;;19.48;98.00
71638;BME280;59485;43.542;-5.676;2022-12-20T00:52:12;100912.66;;;19.49;98.33
71638;BME280;59485;43.542;-5.676;2022-12-20T00:54:38;100911.59;;;19.50;98.66
71638;BME280;59485;43.542;-5.676;2022-12-20T00:57:03;100907.13;;;19.49;98.52
71638;BME280;59485;43.542;-5.676;2022-12-20T00:59:29;100907.13;;;19.49;98.44
71638;BME280;59485;43.542;-5.676;2022-12-20T01:01:54;100902.00;;;19.46;98.77
71638;BME280;59485;43.542;-5.676;2022-12-20T01:04:20;100907.97;;;19.50;98.23
71638;BME280;59485;43.542;-5.676;2022-12-20T01:06:45;100903.09;;;19.45;98.86
71638;BME280;59485;43.542;-5.676;2022-12-20T01:09:11;100911.44;;;19.45;98.67
71638;BME280;59485;43.542;-5.676;2022-12-20T01:11:37;100915.06;;;19.45;98.93
71638;BME280;59485;43.542;-5.676;2022-12-20T01:14:06;100921.69;;;19.44;98.99
71638;BME280;59485;43.542;-5.676;2022-12-20T01:16:41;100916.38;;;19.43;99.23
71638;BME280;59485;43.542;-5.676;2022-12-20T01:19:08;100933.06;;;19.43;99.67
71638;BME280;59485;43.542;-5.676;2022-12-20T01:21:35;100928.59;;;19.42;99.98
71638;BME280;59485;43.542;-5.676;2022-12-20T01:24:00;100917.97;;;19.39;99.95
71638;BME280;59485;43.542;-5.676;2022-12-20T01:26:27;100926.09;;;19.40;100.00
71638;BME280;59485;43.542;-5.676;2022-12-20T01:28:58;100916.28;;;19.38;100.00
71638;BME280;59485;43.542;-5.676;2022-12-20T01:31:28;100926.56;;;19.37;100.00
71638;BME280;59485;43.542;-5.676;2022-12-20T01:33:54;100931.75;;;19.34;100.00
71638;BME280;59485;43.542;-5.676;2022-12-20T01:36:21;100940.34;;;19.32;100.00
71638;BME280;59485;43.542;-5.676;2022-12-20T01:38:49;100943.13;;;19.32;100.00
71638;BME280;59485;43.542;-5.676;2022-12-20T01:41:20;100939.75;;;19.30;100.00
71638;BME280;59485;43.542;-5.676;2022-12-20T01:43:57;100943.84;;;19.28;100.00
71638;BME280;59485;43.542;-5.676;2022-12-20T01:46:26;100943.63;;;19.29;100.00
71638;BME280;59485;43.542;-5.676;2022-12-20T01:48:58;100940.84;;;19.29;100.00
71638;BME280;59485;43.542;-5.676;2022-12-20T01:51:28;100931.41;;;19.30;100.00
71638;BME280;59485;43.542;-5.676;2022-12-20T01:53:59;100927.19;;;19.28;100.00
71638;BME280;59485;43.542;-5.676;2022-12-20T01:56:26;100931.88;;;19.27;100.00
71638;BME280;59485;43.542;-5.676;2022-12-20T01:58:52;100939.75;;;19.30;100.00
71638;BME280;59485;43.542;-5.676;2022-12-20T02:01:21;100940.00;;;19.29;100.00
71638;BME280;59485;43.542;-5.676;2022-12-20T02:03:48;100936.72;;;19.32;100.00
71638;BME280;59485;43.542;-5.676;2022-12-20T02:06:25;100938.66;;;19.31;100.00
71638;BME280;59485;43.542;-5.676;2022-12-20T02:08:51;100942.28;;;19.32;100.00
71638;BME280;59485;43.542;-5.676;2022-12-20T02:11:36;100936.72;;;19.32;100.00
71638;BME280;59485;43.542;-5.676;2022-12-20T02:14:54;100933.34;;;19.30;100.00
71638;BME280;59485;43.542;-5.676;2022-12-20T02:17:30;100930.69;;;19.23;100.00
71638;BME280;59485;43.542;-5.676;2022-12-20T02:28:07;100941.22;;;19.21;100.00
71638;BME280;59485;43.542;-5.676;2022-12-20T02:30:41;100930.69;;;19.23;100.00
71638;BME280;59485;43.542;-5.676;2022-12-20T02:33:09;100932.97;;;19.26;100.00
71638;BME280;59485;43.542;-5.676;2022-12-20T02:35:37;100934.06;;;19.25;100.00
71638;BME280;59485;43.542;-5.676;2022-12-20T02:41:06;100952.09;;;19.23;100.00
71638;BME280;59485;43.542;-5.676;2022-12-20T02:43:35;100945.41;;;19.24;100.00
71638;BME280;59485;43.542;-5.676;2022-12-20T02:46:22;100955.09;;;19.21;100.00
71638;BME280;59485;43.542;-5.676;2022-12-20T02:48:50;100950.88;;;19.19;100.00
71638;BME280;59485;43.542;-5.676;2022-12-20T02:51:17;100960.28;;;19.18;100.00
71638;BME280;59485;43.542;-5.676;2022-12-20T02:53:45;100958.72;;;19.10;100.00
71638;BME280;59485;43.542;-5.676;2022-12-20T02:56:20;100978.31;;;19.03;100.00
71638;BME280;59485;43.542;-5.676;2022-12-20T02:59:13;100975.41;;;18.98;100.00
71638;BME280;59485;43.542;-5.676;2022-12-20T03:01:49;100970.19;;;18.90;100.00
71638;BME280;59485;43.542;-5.676;2022-12-20T03:04:16;100977.19;;;18.81;100.00
71638;BME280;59485;43.542;-5.676;2022-12-20T03:07:15;100981.56;;;18.77;100.00
71638;BME280;59485;43.542;-5.676;2022-12-20T03:09:43;100978.53;;;18.79;100.00
71638;BME280;59485;43.542;-5.676;2022-12-20T03:12:10;100985.72;;;18.26;100.00
71638;BME280;59485;43.542;-5.676;2022-12-20T03:14:36;100981.75;;;17.74;100.00
71638;BME280;59485;43.542;-5.676;2022-12-20T03:17:02;100991.41;;;17.47;100.00
71638;BME280;59485;43.542;-5.676;2022-12-20T03:19:28;100985.81;;;17.35;100.00
71638;BME280;59485;43.542;-5.676;2022-12-20T03:21:54;100992.59;;;16.96;100.00
71638;BME280;59485;43.542;-5.676;2022-12-20T03:24:19;100989.97;;;16.76;100.00
71638;BME280;59485;43.542;-5.676;2022-12-20T03:26:45;100991.38;;;16.61;100.00
71638;BME280;59485;43.542;-5.676;2022-12-20T03:29:10;100997.81;;;16.55;100.00
71638;BME280;59485;43.542;-5.676;2022-12-20T03:31:36;101015.34;;;16.42;100.00
71638;BME280;59485;43.542;-5.676;2022-12-20T03:34:02;101014.91;;;16.38;100.00
71638;BME280;59485;43.542;-5.676;2022-12-20T03:36:28;101004.69;;;16.45;100.00
71638;BME280;59485;43.542;-5.676;2022-12-20T03:38:54;101006.41;;;16.40;100.00
71638;BME280;59485;43.542;-5.676;2022-12-20T03:41:21;101011.94;;;16.40;100.00
71638;BME280;59485;43.542;-5.676;2022-12-20T03:43:47;100995.81;;;16.37;100.00
71638;BME280;59485;43.542;-5.676;2022-12-20T03:46:13;101004.75;;;16.32;100.00
71638;BME280;59485;43.542;-5.676;2022-12-20T03:48:38;101009.63;;;16.37;100.00
71638;BME280;59485;43.542;-5.676;2022-12-20T03:51:04;101014.31;;;16.36;100.00
71638;BME280;59485;43.542;-5.676;2022-12-20T03:53:30;101017.09;;;16.30;100.00
71638;BME280;59485;43.542;-5.676;2022-12-20T03:55:56;101020.94;;;16.29;100.00
71638;BME280;59485;43.542;-5.676;2022-12-20T03:58:22;101016.34;;;16.16;100.00
71638;BME280;59485;43.542;-5.676;2022-12-20T04:00:47;101025.50;;;16.17;100.00
71638;BME280;59485;43.542;-5.676;2022-12-20T04:03:13;101025.50;;;16.17;100.00
71638;BME280;59485;43.542;-5.676;2022-12-20T04:05:38;101016.31;;;16.23;100.00
71638;BME280;59485;43.542;-5.676;2022-12-20T04:08:04;101026.03;;;16.32;100.00
71638;BME280;59485;43.542;-5.676;2022-12-20T04:10:29;101019.50;;;16.20;100.00
71638;BME280;59485;43.542;-5.676;2022-12-20T04:12:55;101017.19;;;16.17;100.00
71638;BME280;59485;43.542;-5.676;2022-12-20T04:15:20;101032.75;;;16.11;100.00
71638;BME280;59485;43.542;-5.676;2022-12-20T04:17:46;101033.75;;;16.23;100.00
71638;BME280;59485;43.542;-5.676;2022-12-20T04:20:15;101040.31;;;16.29;100.00
71638;BME280;59485;43.542;-5.676;2022-12-20T04:22:47;101033.97;;;16.28;100.00
71638;BME280;59485;43.542;-5.676;2022-12-20T04:25:15;101039.50;;;16.22;100.00
71638;BME280;59485;43.542;-5.676;2022-12-20T04:27:41;101030.81;;;16.18;100.00
71638;BME280;59485;43.542;-5.676;2022-12-20T04:30:08;101033.09;;;16.28;100.00
71638;BME280;59485;43.542;-5.676;2022-12-20T04:32:33;101030.34;;;16.28;100.00
71638;BME280;59485;43.542;-5.676;2022-12-20T04:34:59;101024.34;;;16.31;100.00
71638;BME280;59485;43.542;-5.676;2022-12-20T04:37:25;101010.72;;;16.29;100.00
71638;BME280;59485;43.542;-5.676;2022-12-20T04:39:50;101009.44;;;16.32;100.00
71638;BME280;59485;43.542;-5.676;2022-12-20T04:42:16;101012.03;;;16.27;100.00
71638;BME280;59485;43.542;-5.676;2022-12-20T04:44:41;101008.69;;;16.18;100.00
71638;BME280;59485;43.542;-5.676;2022-12-20T04:47:06;101007.38;;;16.21;100.00
71638;BME280;59485;43.542;-5.676;2022-12-20T04:49:32;101000.81;;;16.15;100.00
71638;BME280;59485;43.542;-5.676;2022-12-20T04:51:57;100994.22;;;16.16;100.00
71638;BME280;59485;43.542;-5.676;2022-12-20T04:54:43;100996.78;;;16.18;100.00
71638;BME280;59485;43.542;-5.676;2022-12-20T04:57:08;100998.94;;;16.09;100.00
71638;BME280;59485;43.542;-5.676;2022-12-20T04:59:34;100997.28;;;16.01;100.00
71638;BME280;59485;43.542;-5.676;2022-12-20T05:02:00;100994.28;;;16.03;100.00
71638;BME280;59485;43.542;-5.676;2022-12-20T05:04:26;100986.03;;;15.96;100.00
71638;BME280;59485;43.542;-5.676;2022-12-20T05:06:51;100991.13;;;15.93;100.00
71638;BME280;59485;43.542;-5.676;2022-12-20T05:09:17;100999.22;;;16.01;100.00
71638;BME280;59485;43.542;-5.676;2022-12-20T05:11:42;101013.00;;;16.07;100.00
71638;BME280;59485;43.542;-5.676;2022-12-20T05:14:08;101030.81;;;16.11;100.00
71638;BME280;59485;43.542;-5.676;2022-12-20T05:16:33;101050.19;;;16.11;100.00
71638;BME280;59485;43.542;-5.676;2022-12-20T05:18:59;101056.78;;;16.10;100.00
71638;BME280;59485;43.542;-5.676;2022-12-20T05:21:25;101051.97;;;15.99;100.00
71638;BME280;59485;43.542;-5.676;2022-12-20T05:24:09;101066.25;;;15.90;100.00
71638;BME280;59485;43.542;-5.676;2022-12-20T05:26:53;101081.34;;;15.87;100.00
71638;BME280;59485;43.542;-5.676;2022-12-20T05:29:18;101075.25;;;15.72;100.00
71638;BME280;59485;43.542;-5.676;2022-12-20T05:31:44;101085.06;;;15.55;100.00
71638;BME280;59485;43.542;-5.676;2022-12-20T05:34:09;101090.59;;;15.55;100.00
71638;BME280;59485;43.542;-5.676;2022-12-20T05:36:35;101078.84;;;15.53;100.00
71638;BME280;59485;43.542;-5.676;2022-12-20T05:39:00;101109.69;;;15.63;100.00
71638;BME280;59485;43.542;-5.676;2022-12-20T05:41:26;101115.44;;;15.55;100.00
71638;BME280;59485;43.542;-5.676;2022-12-20T05:43:52;101129.06;;;15.56;100.00
71638;BME280;59485;43.542;-5.676;2022-12-20T05:46:17;101130.72;;;15.51;100.00
71638;BME280;59485;43.542;-5.676;2022-12-20T05:48:43;101125.19;;;15.44;100.00
71638;BME280;59485;43.542;-5.676;2022-12-20T05:51:08;101130.72;;;15.24;100.00
71638;BME280;59485;43.542;-5.676;2022-12-20T05:53:34;101132.44;;;15.25;100.00
71638;BME280;59485;43.542;-5.676;2022-12-20T05:56:00;101135.41;;;15.17;100.00
71638;BME280;59485;43.542;-5.676;2022-12-20T05:58:26;101132.22;;;15.20;100.00
71638;BME280;59485;43.542;-5.676;2022-12-20T06:00:52;101138.16;;;15.17;100.00
71638;BME280;59485;43.542;-5.676;2022-12-20T06:03:18;101135.19;;;15.25;100.00
71638;BME280;59485;43.542;-5.676;2022-12-20T06:05:43;101135.19;;;15.32;100.00
71638;BME280;59485;43.542;-5.676;2022-12-20T06:08:10;101140.72;;;15.32;100.00
71638;BME280;59485;43.542;-5.676;2022-12-20T06:10:36;101134.97;;;15.33;100.00
71638;BME280;59485;43.542;-5.676;2022-12-20T06:13:02;101137.75;;;15.27;100.00
71638;BME280;59485;43.542;-5.676;2022-12-20T06:15:29;101117.34;;;15.21;100.00
71638;BME280;59485;43.542;-5.676;2022-12-20T06:17:55;101123.72;;;15.28;100.00
71638;BME280;59485;43.542;-5.676;2022-12-20T06:20:21;101134.34;;;15.31;100.00
71638;BME280;59485;43.542;-5.676;2022-12-20T06:22:46;101121.78;;;15.22;100.00
71638;BME280;59485;43.542;-5.676;2022-12-20T06:25:12;101148.16;;;15.25;100.00
71638;BME280;59485;43.542;-5.676;2022-12-20T06:27:40;101145.81;;;15.02;100.00
71638;BME280;59485;43.542;-5.676;2022-12-20T06:30:09;101147.09;;;15.19;100.00
71638;BME280;59485;43.542;-5.676;2022-12-20T06:32:35;101147.09;;;15.19;100.00
71638;BME280;59485;43.542;-5.676;2022-12-20T06:35:00;101142.84;;;15.10;100.00
71638;BME280;59485;43.542;-5.676;2022-12-20T06:37:26;101149.81;;;15.13;100.00
71638;BME280;59485;43.542;-5.676;2022-12-20T06:39:51;101135.81;;;15.08;100.00
71638;BME280;59485;43.542;-5.676;2022-12-20T06:42:17;101138.59;;;15.14;100.00
71638;BME280;59485;43.542;-5.676;2022-12-20T06:44:43;101144.53;;;15.11;100.00
71638;BME280;59485;43.542;-5.676;2022-12-20T06:47:08;101129.44;;;15.07;100.00
71638;BME280;59485;43.542;-5.676;2022-12-20T06:49:34;101141.13;;;15.09;100.00
71638;BME280;59485;43.542;-5.676;2022-12-20T06:51:59;101137.72;;;15.07;100.00
71638;BME280;59485;43.542;-5.676;2022-12-20T06:54:25;101153.88;;;15.10;100.00
71638;BME280;59485;43.542;-5.676;2022-12-20T06:56:50;101152.38;;;15.08;100.00
71638;BME280;59485;43.542;-5.676;2022-12-20T06:59:16;101139.84;;;15.05;100.00
71638;BME280;59485;43.542;-5.676;2022-12-20T07:01:42;101116.50;;;15.01;100.00
71638;BME280;59485;43.542;-5.676;2022-12-20T07:04:07;101130.91;;;14.90;100.00
71638;BME280;59485;43.542;-5.676;2022-12-20T07:06:33;101140.91;;;14.84;100.00
71638;BME280;59485;43.542;-5.676;2022-12-20T07:08:58;101126.25;;;14.84;100.00
71638;BME280;59485;43.542;-5.676;2022-12-20T07:11:26;101127.91;;;14.78;100.00
71638;BME280;59485;43.542;-5.676;2022-12-20T07:13:56;101133.22;;;14.80;100.00
71638;BME280;59485;43.542;-5.676;2022-12-20T07:16:22;101141.50;;;14.86;100.00
71638;BME280;59485;43.542;-5.676;2022-12-20T07:18:52;101129.22;;;14.82;100.00
71638;BME280;59485;43.542;-5.676;2022-12-20T07:21:18;101136.41;;;14.77;100.00
71638;BME280;59485;43.542;-5.676;2022-12-20T07:23:45;101132.56;;;14.71;100.00
71638;BME280;59485;43.542;-5.676;2022-12-20T07:26:12;101134.72;;;14.76;100.00
71638;BME280;59485;43.542;-5.676;2022-12-20T07:28:38;101138.53;;;14.81;100.00
71638;BME280;59485;43.542;-5.676;2022-12-20T07:31:04;101158.72;;;14.88;100.00
71638;BME280;59485;43.542;-5.676;2022-12-20T07:33:31;101172.31;;;14.90;100.00
71638;BME280;59485;43.542;-5.676;2022-12-20T07:36:09;101181.47;;;14.97;100.00
71638;BME280;59485;43.542;-5.676;2022-12-20T07:38:35;101188.47;;;14.93;100.00
71638;BME280;59485;43.542;-5.676;2022-12-20T07:41:08;101174.44;;;14.88;100.00
71638;BME280;59485;43.542;-5.676;2022-12-20T07:43:35;101184.44;;;14.95;100.00
71638;BME280;59485;43.542;-5.676;2022-12-20T07:46:01;101192.50;;;14.90;100.00
71638;BME280;59485;43.542;-5.676;2022-12-20T07:48:27;101188.88;;;14.90;100.00
71638;BME280;59485;43.542;-5.676;2022-12-20T07:50:56;101188.63;;;14.78;100.00
71638;BME280;59485;43.542;-5.676;2022-12-20T07:53:23;101195.25;;;14.84;100.00
71638;BME280;59485;43.542;-5.676;2022-12-20T07:55:51;101199.28;;;14.81;100.00
71638;BME280;59485;43.542;-5.676;2022-12-20T07:58:18;101184.59;;;14.74;100.00
71638;BME280;59485;43.542;-5.676;2022-12-20T08:00:44;101159.91;;;14.59;100.00
71638;BME280;59485;43.542;-5.676;2022-12-20T08:05:46;101162.25;;;14.56;100.00
71638;BME280;59485;43.542;-5.676;2022-12-20T08:08:14;101144.66;;;14.57;100.00
71638;BME280;59485;43.542;-5.676;2022-12-20T08:10:40;101144.41;;;14.58;100.00
71638;BME280;59485;43.542;-5.676;2022-12-20T08:13:06;101142.09;;;14.55;100.00
71638;BME280;59485;43.542;-5.676;2022-12-20T08:15:33;101132.72;;;14.50;100.00
71638;BME280;59485;43.542;-5.676;2022-12-20T08:17:59;101128.25;;;14.42;100.00
71638;BME280;59485;43.542;-5.676;2022-12-20T08:20:25;101128.00;;;14.37;100.00
71638;BME280;59485;43.542;-5.676;2022-12-20T08:22:51;101117.22;;;14.42;100.00
71638;BME280;59485;43.542;-5.676;2022-12-20T08:25:16;101126.59;;;14.48;100.00
71638;BME280;59485;43.542;-5.676;2022-12-20T08:27:42;101111.50;;;14.50;100.00
71638;BME280;59485;43.542;-5.676;2022-12-20T08:30:08;101123.84;;;14.54;100.00
71638;BME280;59485;43.542;-5.676;2022-12-20T08:32:35;101135.31;;;14.64;100.00
71638;BME280;59485;43.542;-5.676;2022-12-20T08:35:01;101131.31;;;14.67;100.00
71638;BME280;59485;43.542;-5.676;2022-12-20T08:37:29;101128.34;;;14.75;100.00
71638;BME280;59485;43.542;-5.676;2022-12-20T08:39:54;101121.34;;;14.79;100.00
71638;BME280;59485;43.542;-5.676;2022-12-20T08:42:20;101121.56;;;14.84;100.00
71638;BME280;59485;43.542;-5.676;2022-12-20T08:44:45;101122.00;;;14.88;100.00
71638;BME280;59485;43.542;-5.676;2022-12-20T08:47:11;101093.75;;;14.86;100.00
71638;BME280;59485;43.542;-5.676;2022-12-20T08:49:36;101090.81;;;14.94;100.00
71638;BME280;59485;43.542;-5.676;2022-12-20T08:52:02;101084.63;;;14.98;100.00
71638;BME280;59485;43.542;-5.676;2022-12-20T08:54:27;101093.13;;;15.03;100.00
71638;BME280;59485;43.542;-5.676;2022-12-20T08:56:53;101097.56;;;15.05;100.00
71638;BME280;59485;43.542;-5.676;2022-12-20T08:59:18;101122.88;;;15.08;100.00
71638;BME280;59485;43.542;-5.676;2022-12-20T09:01:44;101155.16;;;15.01;100.00
71638;BME280;59485;43.542;-5.676;2022-12-20T09:04:10;101160.88;;;14.93;100.00
71638;BME280;59485;43.542;-5.676;2022-12-20T09:06:36;101130.06;;;14.96;100.00
71638;BME280;59485;43.542;-5.676;2022-12-20T09:09:03;101117.31;;;14.88;100.00
71638;BME280;59485;43.542;-5.676;2022-12-20T09:11:28;101124.09;;;14.86;100.00
71638;BME280;59485;43.542;-5.676;2022-12-20T09:13:56;101110.94;;;14.81;100.00
71638;BME280;59485;43.542;-5.676;2022-12-20T09:16:24;101110.09;;;14.81;100.00
71638;BME280;59485;43.542;-5.676;2022-12-20T09:18:51;101109.88;;;14.82;100.00
71638;BME280;59485;43.542;-5.676;2022-12-20T09:21:18;101113.50;;;14.83;100.00
71638;BME280;59485;43.542;-5.676;2022-12-20T09:23:44;101119.22;;;14.81;100.00
71638;BME280;59485;43.542;-5.676;2022-12-20T09:26:11;101128.97;;;14.77;100.00
71638;BME280;59485;43.542;-5.676;2022-12-20T09:28:38;101134.06;;;14.74;100.00
71638;BME280;59485;43.542;-5.676;2022-12-20T09:31:05;101140.84;;;14.71;100.00
71638;BME280;59485;43.542;-5.676;2022-12-20T09:33:33;101145.31;;;14.72;100.00
71638;BME280;59485;43.542;-5.676;2022-12-20T09:35:59;101142.75;;;14.71;100.00
71638;BME280;59485;43.542;-5.676;2022-12-20T09:38:26;101126.00;;;14.72;100.00
71638;BME280;59485;43.542;-5.676;2022-12-20T09:40:57;101122.38;;;14.72;100.00
71638;BME280;59485;43.542;-5.676;2022-12-20T09:43:23;101130.88;;;14.77;100.00
71638;BME280;59485;43.542;-5.676;2022-12-20T09:45:54;101116.66;;;14.80;100.00
71638;BME280;59485;43.542;-5.676;2022-12-20T09:48:27;101115.63;;;14.81;100.00
71638;BME280;59485;43.542;-5.676;2022-12-20T09:53:42;101131.97;;;14.89;100.00
71638;BME280;59485;43.542;-5.676;2022-12-20T09:56:26;101122.63;;;14.96;100.00
71638;BME280;59485;43.542;-5.676;2022-12-20T09:58:59;101127.09;;;14.97;100.00
71638;BME280;59485;43.542;-5.676;2022-12-20T10:01:28;101127.94;;;14.98;100.00
71638;BME280;59485;43.542;-5.676;2022-12-20T10:03:56;101143.66;;;15.04;100.00
71638;BME280;59485;43.542;-5.676;2022-12-20T10:06:28;101139.63;;;15.13;100.00
71638;BME280;59485;43.542;-5.676;2022-12-20T10:09:08;101128.38;;;15.21;100.00
71638;BME280;59485;43.542;-5.676;2022-12-20T10:11:52;101132.44;;;15.25;100.00
71638;BME280;59485;43.542;-5.676;2022-12-20T10:17:30;101138.38;;;15.29;100.00
71638;BME280;59485;43.542;-5.676;2022-12-20T10:27:43;101153.88;;;15.50;100.00
71638;BME280;59485;43.542;-5.676;2022-12-20T10:30:16;101159.19;;;15.51;100.00
71638;BME280;59485;43.542;-5.676;2022-12-20T10:32:45;101174.09;;;15.44;100.00
71638;BME280;59485;43.542;-5.676;2022-12-20T10:38:02;101184.53;;;15.55;100.00
71638;BME280;59485;43.542;-5.676;2022-12-20T10:40:36;101190.69;;;15.57;100.00
71638;BME280;59485;43.542;-5.676;2022-12-20T10:43:04;101194.09;;;15.59;100.00
71638;BME280;59485;43.542;-5.676;2022-12-20T10:45:36;101210.69;;;15.65;100.00
71638;BME280;59485;43.542;-5.676;2022-12-20T10:48:30;101216.41;;;15.64;100.00
71638;BME280;59485;43.542;-5.676;2022-12-20T10:51:07;101207.06;;;15.71;100.00
71638;BME280;59485;43.542;-5.676;2022-12-20T10:56:25;101208.31;;;15.75;100.00
71638;BME280;59485;43.542;-5.676;2022-12-20T10:58:59;101211.94;;;15.76;100.00
71638;BME280;59485;43.542;-5.676;2022-12-20T11:01:30;101232.34;;;15.68;100.00
71638;BME280;59485;43.542;-5.676;2022-12-20T11:04:04;101234.47;;;15.66;100.00
71638;BME280;59485;43.542;-5.676;2022-12-20T11:14:24;101245.13;;;15.63;100.00
71638;BME280;59485;43.542;-5.676;2022-12-20T11:16:54;101237.22;;;15.66;100.00
71638;BME280;59485;43.542;-5.676;2022-12-20T11:19:31;101235.56;;;15.72;100.00
71638;BME280;59485;43.542;-5.676;2022-12-20T11:24:44;101209.19;;;15.63;100.00
71638;BME280;59485;43.542;-5.676;2022-12-20T11:33:10;101195.56;;;15.81;100.00
71638;BME280;59485;43.542;-5.676;2022-12-20T11:35:48;101200.66;;;15.91;100.00
71638;BME280;59485;43.542;-5.676;2022-12-20T11:44:12;101217.22;;;16.04;100.00
71638;BME280;59485;43.542;-5.676;2022-12-20T11:46:59;101219.75;;;16.12;100.00
71638;BME280;59485;43.542;-5.676;2022-12-20T11:50:00;101221.44;;;16.20;100.00
71638;BME280;59485;43.542;-5.676;2022-12-20T11:55:27;101208.25;;;16.22;100.00
71638;BME280;59485;43.542;-5.676;2022-12-20T12:00:24;101212.72;;;16.23;100.00
71638;BME280;59485;43.542;-5.676;2022-12-20T12:02:58;101214.84;;;16.27;100.00
71638;BME280;59485;43.542;-5.676;2022-12-20T12:05:30;101201.84;;;16.28;100.00
71638;BME280;59485;43.542;-5.676;2022-12-20T12:08:03;101185.69;;;16.25;100.00
71638;BME280;59485;43.542;-5.676;2022-12-20T12:10:35;101193.78;;;16.20;100.00
71638;BME280;59485;43.542;-5.676;2022-12-20T12:16:00;101188.47;;;16.11;100.00
71638;BME280;59485;43.542;-5.676;2022-12-20T12:18:33;101189.53;;;16.17;100.00
71638;BME280;59485;43.542;-5.676;2022-12-20T12:21:15;101190.41;;;16.18;100.00
71638;BME280;59485;43.542;-5.676;2022-12-20T12:26:24;101169.88;;;16.38;100.00
71638;BME280;59485;43.542;-5.676;2022-12-20T12:28:57;101167.75;;;16.40;100.00
71638;BME280;59485;43.542;-5.676;2022-12-20T12:31:30;101158.81;;;16.45;100.00
71638;BME280;59485;43.542;-5.676;2022-12-20T12:34:10;101158.53;;;16.53;100.00
71638;BME280;59485;43.542;-5.676;2022-12-20T12:45:36;101160.84;;;16.56;100.00
71638;BME280;59485;43.542;-5.676;2022-12-20T12:50:48;101200.00;;;16.08;100.00
71638;BME280;59485;43.542;-5.676;2022-12-20T12:53:16;101212.13;;;16.07;100.00
71638;BME280;59485;43.542;-5.676;2022-12-20T12:58:14;101210.22;;;16.01;100.00
71638;BME280;59485;43.542;-5.676;2022-12-20T13:11:54;101205.53;;;16.08;100.00
71638;BME280;59485;43.542;-5.676;2022-12-20T13:16:47;101199.53;;;16.11;100.00
71638;BME280;59485;43.542;-5.676;2022-12-20T13:19:18;101186.09;;;16.22;100.00
71638;BME280;59485;43.542;-5.676;2022-12-20T13:22:18;101193.31;;;16.29;100.00
71638;BME280;59485;43.542;-5.676;2022-12-20T13:27:38;101205.63;;;16.40;100.00
71638;BME280;59485;43.542;-5.676;2022-12-20T13:45:41;101185.91;;;16.81;100.00
71638;BME280;59485;43.542;-5.676;2022-12-20T13:48:11;101189.53;;;16.81;100.00
71638;BME280;59485;43.542;-5.676;2022-12-20T13:50:40;101192.47;;;16.86;100.00
71638;BME280;59485;43.542;-5.676;2022-12-20T13:53:19;101189.50;;;16.88;100.00
71638;BME280;59485;43.542;-5.676;2022-12-20T13:55:46;101179.31;;;16.75;100.00
71638;BME280;59485;43.542;-5.676;2022-12-20T13:58:20;101179.69;;;16.85;100.00
71638;BME280;59485;43.542;-5.676;2022-12-20T14:00:47;101175.69;;;16.81;100.00
71638;BME280;59485;43.542;-5.676;2022-12-20T14:03:26;101170.56;;;16.78;100.00
71638;BME280;59485;43.542;-5.676;2022-12-20T14:06:04;101182.66;;;16.91;100.00
71638;BME280;59485;43.542;-5.676;2022-12-20T14:08:37;101180.06;;;16.96;100.00
71638;BME280;59485;43.542;-5.676;2022-12-20T14:11:18;101173.81;;;17.07;100.00
71638;BME280;59485;43.542;-5.676;2022-12-20T14:13:55;101166.94;;;17.16;100.00
71638;BME280;59485;43.542;-5.676;2022-12-20T14:16:22;101159.56;;;17.28;100.00
71638;BME280;59485;43.542;-5.676;2022-12-20T14:18:49;101159.94;;;17.38;100.00
71638;BME280;59485;43.542;-5.676;2022-12-20T14:21:15;101159.50;;;17.41;100.00
71638;BME280;59485;43.542;-5.676;2022-12-20T14:23:45;101155.56;;;17.49;100.00
71638;BME280;59485;43.542;-5.676;2022-12-20T14:26:29;101151.84;;;17.61;100.00
71638;BME280;59485;43.542;-5.676;2022-12-20T14:28:57;101160.75;;;17.70;100.00
71638;BME280;59485;43.542;-5.676;2022-12-20T14:36:38;101175.69;;;17.69;100.00